sensor_id;sensor_type;location;lat;lon;timestamp;pressure;altitude;pressure_sealevel;temperature;humidity
21742;BME280;11033;47.490;11.116;2023-04-04T00:00:07;93518.22;;;0.24;85.41
21742;BME280;11033;47.490;11.116;2023-04-04T00:02:33;93515.84;;;0.32;83.83
21742;BME280;11033;47.490;11.116;2023-04-04T00:04:58;93519.03;;;0.24;85.20
21742;BME280;11033;47.490;11.116;2023-04-04T00:07:23;93514.69;;;0.25;86.14
21742;BME280;11033;47.490;11.116;2023-04-04T00:09:49;93512.78;;;0.27;85.46
21742;BME280;11033;47.490;11.116;2023-04-04T00:12:14;93515.16;;;0.19;85.18
21742;BME280;11033;47.490;11.116;2023-04-04T00:14:40;93512.09;;;0.14;83.29
21742;BME280;11033;47.490;11.116;2023-04-04T00:17:05;93516.00;;;0.19;84.20
21742;BME280;11033;47.490;11.116;2023-04-04T00:19:30;93507.16;;;0.11;84.33
21742;BME280;11033;47.490;11.116;2023-04-04T00:21:56;93507.88;;;0.13;84.53
21742;BME280;11033;47.490;11.116;2023-04-04T00:24:21;93505.50;;;0.21;84.11
21742;BME280;11033;47.490;11.116;2023-04-04T00:26:46;93506.94;;;0.14;85.51
21742;BME280;11033;47.490;11.116;2023-04-04T00:29:12;93509.53;;;0.14;84.87
21742;BME280;11033;47.490;11.116;2023-04-04T00:31:37;93501.75;;;0.14;85.86
21742;BME280;11033;47.490;11.116;2023-04-04T00:34:03;93491.63;;;0.11;85.81
21742;BME280;11033;47.490;11.116;2023-04-04T00:36:28;93495.16;;;0.10;85.28
21742;BME280;11033;47.490;11.116;2023-04-04T00:38:53;93502.69;;;0.02;85.65
21742;BME280;11033;47.490;11.116;2023-04-04T00:41:18;93494.22;;;0.11;85.64
21742;BME280;11033;47.490;11.116;2023-04-04T00:43:45;93490.91;;;-0.03;86.69
21742;BME280;11033;47.490;11.116;2023-04-04T00:46:10;93488.66;;;-0.07;86.11
21742;BME280;11033;47.490;11.116;2023-04-04T00:48:40;93494.00;;;0.03;85.36
21742;BME280;11033;47.490;11.116;2023-04-04T00:51:05;93489.72;;;-0.10;85.71
21742;BME280;11033;47.490;11.116;2023-04-04T00:53:31;93488.56;;;-0.17;86.69
21742;BME280;11033;47.490;11.116;2023-04-04T00:55:56;93490.44;;;-0.08;85.17
21742;BME280;11033;47.490;11.116;2023-04-04T00:58:23;93482.91;;;-0.22;84.70
21742;BME280;11033;47.490;11.116;2023-04-04T01:00:49;93484.19;;;-0.27;85.39
21742;BME280;11033;47.490;11.116;2023-04-04T01:03:14;93481.75;;;-0.29;84.89
21742;BME280;11033;47.490;11.116;2023-04-04T01:05:39;93480.56;;;-0.25;83.59
21742;BME280;11033;47.490;11.116;2023-04-04T01:08:06;93485.72;;;-0.14;83.56
21742;BME280;11033;47.490;11.116;2023-04-04T01:10:34;93481.25;;;-0.23;84.13
21742;BME280;11033;47.490;11.116;2023-04-04T01:13:00;93481.03;;;-0.31;84.48
21742;BME280;11033;47.490;11.116;2023-04-04T01:15:25;93485.50;;;-0.44;85.26
21742;BME280;11033;47.490;11.116;2023-04-04T01:17:54;93482.44;;;-0.49;84.96
21742;BME280;11033;47.490;11.116;2023-04-04T01:20:24;93479.13;;;-0.51;85.69
21742;BME280;11033;47.490;11.116;2023-04-04T01:22:50;93466.66;;;-0.57;85.58
21742;BME280;11033;47.490;11.116;2023-04-04T01:25:18;93472.53;;;-0.55;85.29
21742;BME280;11033;47.490;11.116;2023-04-04T01:27:43;93471.00;;;-0.58;84.89
21742;BME280;11033;47.490;11.116;2023-04-04T01:30:10;93470.31;;;-0.60;84.55
21742;BME280;11033;47.490;11.116;2023-04-04T01:32:43;93474.66;;;-0.60;84.75
21742;BME280;11033;47.490;11.116;2023-04-04T01:35:25;93467.34;;;-0.67;84.86
21742;BME280;11033;47.490;11.116;2023-04-04T01:40:43;93465.91;;;-0.82;85.30
21742;BME280;11033;47.490;11.116;2023-04-04T01:43:12;93470.00;;;-0.90;86.10
21742;BME280;11033;47.490;11.116;2023-04-04T01:45:38;93461.78;;;-0.84;85.08
21742;BME280;11033;47.490;11.116;2023-04-04T01:48:03;93459.06;;;-0.83;84.91
21742;BME280;11033;47.490;11.116;2023-04-04T01:50:28;93463.53;;;-0.96;85.89
21742;BME280;11033;47.490;11.116;2023-04-04T01:52:54;93457.53;;;-0.97;84.77
21742;BME280;11033;47.490;11.116;2023-04-04T01:55:19;93457.88;;;-1.01;85.61
21742;BME280;11033;47.490;11.116;2023-04-04T01:57:46;93457.88;;;-1.01;85.33
21742;BME280;11033;47.490;11.116;2023-04-04T02:00:12;93451.75;;;-1.00;84.87
21742;BME280;11033;47.490;11.116;2023-04-04T02:02:37;93462.91;;;-1.00;84.54
21742;BME280;11033;47.490;11.116;2023-04-04T02:05:03;93447.16;;;-1.08;85.49
21742;BME280;11033;47.490;11.116;2023-04-04T02:07:28;93452.66;;;-1.12;84.81
21742;BME280;11033;47.490;11.116;2023-04-04T02:09:53;93457.34;;;-1.17;84.77
21742;BME280;11033;47.490;11.116;2023-04-04T02:12:18;93460.38;;;-1.23;84.97
21742;BME280;11033;47.490;11.116;2023-04-04T02:14:44;93460.72;;;-1.28;85.02
21742;BME280;11033;47.490;11.116;2023-04-04T02:17:09;93456.56;;;-1.31;85.70
21742;BME280;11033;47.490;11.116;2023-04-04T02:19:34;93453.69;;;-1.26;85.74
21742;BME280;11033;47.490;11.116;2023-04-04T02:22:00;93455.56;;;-1.28;85.26
21742;BME280;11033;47.490;11.116;2023-04-04T02:24:25;93450.38;;;-1.28;85.65
21742;BME280;11033;47.490;11.116;2023-04-04T02:26:50;93454.22;;;-1.34;85.78
21742;BME280;11033;47.490;11.116;2023-04-04T02:29:16;93445.75;;;-1.36;86.42
21742;BME280;11033;47.490;11.116;2023-04-04T02:31:41;93449.28;;;-1.37;86.21
21742;BME280;11033;47.490;11.116;2023-04-04T02:34:07;93446.19;;;-1.42;86.73
21742;BME280;11033;47.490;11.116;2023-04-04T02:36:32;93439.59;;;-1.46;87.11
21742;BME280;11033;47.490;11.116;2023-04-04T02:38:57;93444.88;;;-1.47;87.62
21742;BME280;11033;47.490;11.116;2023-04-04T02:41:22;93437.28;;;-1.38;87.27
21742;BME280;11033;47.490;11.116;2023-04-04T02:43:48;93437.75;;;-1.44;87.57
21742;BME280;11033;47.490;11.116;2023-04-04T02:46:13;93428.59;;;-1.37;86.58
21742;BME280;11033;47.490;11.116;2023-04-04T02:48:38;93438.69;;;-1.45;87.14
21742;BME280;11033;47.490;11.116;2023-04-04T02:51:04;93440.59;;;-1.36;86.38
21742;BME280;11033;47.490;11.116;2023-04-04T02:53:29;93438.34;;;-1.40;87.91
21742;BME280;11033;47.490;11.116;2023-04-04T02:55:55;93440.09;;;-1.41;87.77
21742;BME280;11033;47.490;11.116;2023-04-04T02:58:20;93441.97;;;-1.43;88.91
21742;BME280;11033;47.490;11.116;2023-04-04T03:00:45;93433.19;;;-1.40;86.89
21742;BME280;11033;47.490;11.116;2023-04-04T03:03:17;93437.88;;;-1.34;86.29
21742;BME280;11033;47.490;11.116;2023-04-04T03:05:42;93428.59;;;-1.37;86.13
21742;BME280;11033;47.490;11.116;2023-04-04T03:08:08;93434.38;;;-1.33;86.49
21742;BME280;11033;47.490;11.116;2023-04-04T03:10:33;93435.91;;;-1.31;86.09
21742;BME280;11033;47.490;11.116;2023-04-04T03:12:58;93440.00;;;-1.39;86.02
21742;BME280;11033;47.490;11.116;2023-04-04T03:15:24;93435.66;;;-1.39;86.30
21742;BME280;11033;47.490;11.116;2023-04-04T03:17:51;93437.28;;;-1.38;86.60
21742;BME280;11033;47.490;11.116;2023-04-04T03:20:17;93437.50;;;-1.41;86.79
21742;BME280;11033;47.490;11.116;2023-04-04T03:22:42;93438.56;;;-1.43;86.87
21742;BME280;11033;47.490;11.116;2023-04-04T03:25:08;93434.00;;;-1.40;86.19
21742;BME280;11033;47.490;11.116;2023-04-04T03:27:33;93431.88;;;-1.46;84.59
21742;BME280;11033;47.490;11.116;2023-04-04T03:29:59;93441.94;;;-1.54;84.17
21742;BME280;11033;47.490;11.116;2023-04-04T03:32:25;93434.22;;;-1.43;83.99
21742;BME280;11033;47.490;11.116;2023-04-04T03:34:50;93432.34;;;-1.41;84.42
21742;BME280;11033;47.490;11.116;2023-04-04T03:37:18;93438.44;;;-1.42;84.30
21742;BME280;11033;47.490;11.116;2023-04-04T03:39:43;93436.34;;;-1.37;84.55
21742;BME280;11033;47.490;11.116;2023-04-04T03:42:09;93432.59;;;-1.33;84.39
21742;BME280;11033;47.490;11.116;2023-04-04T03:44:34;93432.19;;;-1.26;84.59
21742;BME280;11033;47.490;11.116;2023-04-04T03:47:00;93444.94;;;-1.36;86.37
21742;BME280;11033;47.490;11.116;2023-04-04T03:49:26;93441.63;;;-1.38;87.20
21742;BME280;11033;47.490;11.116;2023-04-04T03:51:51;93436.66;;;-1.29;86.25
21742;BME280;11033;47.490;11.116;2023-04-04T03:54:17;93428.59;;;-1.37;85.57
21742;BME280;11033;47.490;11.116;2023-04-04T03:56:43;93429.84;;;-1.30;85.51
21742;BME280;11033;47.490;11.116;2023-04-04T03:59:08;93431.25;;;-1.25;85.92
21742;BME280;11033;47.490;11.116;2023-04-04T04:01:33;93435.25;;;-1.21;86.23
21742;BME280;11033;47.490;11.116;2023-04-04T04:03:58;93442.75;;;-1.30;87.27
21742;BME280;11033;47.490;11.116;2023-04-04T04:06:25;93440.69;;;-1.13;85.70
21742;BME280;11033;47.490;11.116;2023-04-04T04:08:51;93443.94;;;-1.22;85.34
21742;BME280;11033;47.490;11.116;2023-04-04T04:11:16;93444.22;;;-1.14;85.63
21742;BME280;11033;47.490;11.116;2023-04-04T04:13:41;93445.25;;;-1.17;85.62
21742;BME280;11033;47.490;11.116;2023-04-04T04:16:06;93442.19;;;-1.22;86.58
21742;BME280;11033;47.490;11.116;2023-04-04T04:18:32;93448.41;;;-1.24;86.12
21742;BME280;11033;47.490;11.116;2023-04-04T04:20:57;93452.41;;;-1.20;85.33
21742;BME280;11033;47.490;11.116;2023-04-04T04:23:24;93446.78;;;-1.14;86.14
21742;BME280;11033;47.490;11.116;2023-04-04T04:25:49;93445.63;;;-1.10;85.64
21742;BME280;11033;47.490;11.116;2023-04-04T04:28:15;93451.25;;;-1.16;85.01
21742;BME280;11033;47.490;11.116;2023-04-04T04:30:40;93452.91;;;-1.15;85.67
21742;BME280;11033;47.490;11.116;2023-04-04T04:33:05;93448.19;;;-1.21;86.39
21742;BME280;11033;47.490;11.116;2023-04-04T04:35:31;93453.94;;;-1.18;87.31
21742;BME280;11033;47.490;11.116;2023-04-04T04:37:56;93459.56;;;-1.24;87.63
21742;BME280;11033;47.490;11.116;2023-04-04T04:40:21;93455.47;;;-1.15;86.61
21742;BME280;11033;47.490;11.116;2023-04-04T04:42:46;93467.13;;;-1.10;85.75
21742;BME280;11033;47.490;11.116;2023-04-04T04:45:12;93461.31;;;-1.24;85.39
21742;BME280;11033;47.490;11.116;2023-04-04T04:47:37;93462.69;;;-1.32;85.43
21742;BME280;11033;47.490;11.116;2023-04-04T04:50:03;93468.03;;;-1.22;85.57
21742;BME280;11033;47.490;11.116;2023-04-04T04:52:28;93456.41;;;-1.16;85.28
21742;BME280;11033;47.490;11.116;2023-04-04T04:54:55;93467.19;;;-1.22;86.10
21742;BME280;11033;47.490;11.116;2023-04-04T04:57:21;93468.34;;;-1.26;86.45
21742;BME280;11033;47.490;11.116;2023-04-04T04:59:47;93463.22;;;-1.15;85.97
21742;BME280;11033;47.490;11.116;2023-04-04T05:02:12;93464.19;;;-1.05;85.26
21742;BME280;11033;47.490;11.116;2023-04-04T05:04:37;93460.91;;;-1.07;85.42
21742;BME280;11033;47.490;11.116;2023-04-04T05:07:05;93464.44;;;-1.08;85.35
21742;BME280;11033;47.490;11.116;2023-04-04T05:09:32;93469.34;;;-1.16;86.00
21742;BME280;11033;47.490;11.116;2023-04-04T05:11:57;93468.84;;;-1.21;86.81
21742;BME280;11033;47.490;11.116;2023-04-04T05:14:22;93467.94;;;-1.09;86.26
21742;BME280;11033;47.490;11.116;2023-04-04T05:16:48;93459.25;;;-1.08;85.42
21742;BME280;11033;47.490;11.116;2023-04-04T05:19:13;93462.41;;;-1.16;85.17
21742;BME280;11033;47.490;11.116;2023-04-04T05:21:39;93462.78;;;-1.09;85.04
21742;BME280;11033;47.490;11.116;2023-04-04T05:24:05;93468.03;;;-1.22;84.11
21742;BME280;11033;47.490;11.116;2023-04-04T05:26:30;93468.50;;;-1.17;83.34
21742;BME280;11033;47.490;11.116;2023-04-04T05:28:56;93471.00;;;-1.04;82.49
21742;BME280;11033;47.490;11.116;2023-04-04T05:31:23;93474.00;;;-1.21;82.71
21742;BME280;11033;47.490;11.116;2023-04-04T05:33:48;93469.44;;;-1.18;84.07
21742;BME280;11033;47.490;11.116;2023-04-04T05:36:13;93473.13;;;-1.09;84.25
21742;BME280;11033;47.490;11.116;2023-04-04T05:38:39;93481.66;;;-1.20;83.13
21742;BME280;11033;47.490;11.116;2023-04-04T05:41:04;93469.34;;;-1.16;83.00
21742;BME280;11033;47.490;11.116;2023-04-04T05:43:29;93472.41;;;-1.11;83.44
21742;BME280;11033;47.490;11.116;2023-04-04T05:45:55;93482.38;;;-1.18;82.91
21742;BME280;11033;47.490;11.116;2023-04-04T05:48:20;93486.38;;;-1.14;82.52
21742;BME280;11033;47.490;11.116;2023-04-04T05:50:45;93477.47;;;-1.10;82.83
21742;BME280;11033;47.490;11.116;2023-04-04T05:53:11;93487.19;;;-1.13;83.51
21742;BME280;11033;47.490;11.116;2023-04-04T05:55:36;93480.59;;;-1.17;82.99
21742;BME280;11033;47.490;11.116;2023-04-04T05:58:01;93483.94;;;-1.04;82.57
21742;BME280;11033;47.490;11.116;2023-04-04T06:00:27;93488.16;;;-1.03;82.83
21742;BME280;11033;47.490;11.116;2023-04-04T06:02:55;93483.94;;;-1.04;82.84
21742;BME280;11033;47.490;11.116;2023-04-04T06:05:21;93496.06;;;-1.29;82.03
21742;BME280;11033;47.490;11.116;2023-04-04T06:07:46;93497.53;;;-1.13;82.47
21742;BME280;11033;47.490;11.116;2023-04-04T06:10:12;93498.97;;;-1.09;82.11
21742;BME280;11033;47.490;11.116;2023-04-04T06:12:37;93502.13;;;-1.06;82.22
21742;BME280;11033;47.490;11.116;2023-04-04T06:15:02;93496.63;;;-1.01;82.59
21742;BME280;11033;47.490;11.116;2023-04-04T06:17:28;93502.03;;;-1.04;81.73
21742;BME280;11033;47.490;11.116;2023-04-04T06:19:53;93503.44;;;-1.00;81.90
21742;BME280;11033;47.490;11.116;2023-04-04T06:22:19;93497.59;;;-0.91;81.09
21742;BME280;11033;47.490;11.116;2023-04-04T06:24:45;93500.59;;;-1.08;82.51
21742;BME280;11033;47.490;11.116;2023-04-04T06:27:10;93490.41;;;-0.99;81.84
21742;BME280;11033;47.490;11.116;2023-04-04T06:29:36;93496.63;;;-1.01;82.09
21742;BME280;11033;47.490;11.116;2023-04-04T06:32:01;93493.41;;;-0.81;81.86
21742;BME280;11033;47.490;11.116;2023-04-04T06:34:26;93486.91;;;-0.86;81.51
21742;BME280;11033;47.490;11.116;2023-04-04T06:36:52;93490.56;;;-0.89;82.83
21742;BME280;11033;47.490;11.116;2023-04-04T06:39:17;93492.47;;;-0.80;82.54
21742;BME280;11033;47.490;11.116;2023-04-04T06:41:42;93484.47;;;-0.77;82.24
21742;BME280;11033;47.490;11.116;2023-04-04T06:44:08;93492.72;;;-0.72;81.12
21742;BME280;11033;47.490;11.116;2023-04-04T06:46:36;93484.69;;;-0.80;81.37
21742;BME280;11033;47.490;11.116;2023-04-04T06:49:01;93484.25;;;-0.74;81.03
21742;BME280;11033;47.490;11.116;2023-04-04T06:51:26;93484.19;;;-0.61;80.77
21742;BME280;11033;47.490;11.116;2023-04-04T06:53:56;93487.34;;;-0.57;81.40
21742;BME280;11033;47.490;11.116;2023-04-04T06:56:22;93478.19;;;-0.61;80.27
21742;BME280;11033;47.490;11.116;2023-04-04T06:58:48;93481.47;;;-0.59;80.25
21742;BME280;11033;47.490;11.116;2023-04-04T07:01:13;93471.63;;;-0.43;80.11
21742;BME280;11033;47.490;11.116;2023-04-04T07:03:39;93482.91;;;-0.55;79.81
21742;BME280;11033;47.490;11.116;2023-04-04T07:06:04;93479.59;;;-0.57;79.48
21742;BME280;11033;47.490;11.116;2023-04-04T07:08:30;93477.97;;;-0.36;79.40
21742;BME280;11033;47.490;11.116;2023-04-04T07:10:57;93477.16;;;-0.37;80.07
21742;BME280;11033;47.490;11.116;2023-04-04T07:13:23;93475.38;;;-0.25;79.84
21742;BME280;11033;47.490;11.116;2023-04-04T07:15:48;93482.31;;;-0.14;79.21
21742;BME280;11033;47.490;11.116;2023-04-04T07:18:15;93475.63;;;-0.28;78.61
21742;BME280;11033;47.490;11.116;2023-04-04T07:20:40;93473.03;;;-0.17;78.25
21742;BME280;11033;47.490;11.116;2023-04-04T07:23:06;93473.84;;;-0.16;78.47
21742;BME280;11033;47.490;11.116;2023-04-04T07:25:31;93473.97;;;-0.18;77.17
21742;BME280;11033;47.490;11.116;2023-04-04T07:27:56;93474.44;;;-0.13;77.02
21742;BME280;11033;47.490;11.116;2023-04-04T07:30:22;93468.44;;;-0.02;77.64
21742;BME280;11033;47.490;11.116;2023-04-04T07:32:58;93470.44;;;-0.06;77.05
21742;BME280;11033;47.490;11.116;2023-04-04T07:35:23;93470.66;;;-0.09;76.33
21742;BME280;11033;47.490;11.116;2023-04-04T07:37:49;93470.44;;;0.06;77.07
21742;BME280;11033;47.490;11.116;2023-04-04T07:40:14;93470.00;;;0.01;75.33
21742;BME280;11033;47.490;11.116;2023-04-04T07:42:44;93479.88;;;0.07;75.25
21742;BME280;11033;47.490;11.116;2023-04-04T07:45:10;93475.59;;;-0.06;73.76
21742;BME280;11033;47.490;11.116;2023-04-04T07:47:36;93474.44;;;0.10;75.26
21742;BME280;11033;47.490;11.116;2023-04-04T07:50:02;93476.31;;;-0.04;75.36
21742;BME280;11033;47.490;11.116;2023-04-04T07:52:28;93475.28;;;0.10;75.61
21742;BME280;11033;47.490;11.116;2023-04-04T07:54:53;93469.97;;;0.12;75.62
21742;BME280;11033;47.490;11.116;2023-04-04T07:57:18;93464.53;;;0.26;75.49
21742;BME280;11033;47.490;11.116;2023-04-04T07:59:44;93476.78;;;0.24;74.05
21742;BME280;11033;47.490;11.116;2023-04-04T08:02:10;93464.28;;;0.29;74.41
21742;BME280;11033;47.490;11.116;2023-04-04T08:04:35;93466.66;;;0.21;73.38
21742;BME280;11033;47.490;11.116;2023-04-04T08:07:00;93471.72;;;0.22;73.53
21742;BME280;11033;47.490;11.116;2023-04-04T08:09:25;93465.47;;;0.25;73.25
21742;BME280;11033;47.490;11.116;2023-04-04T08:11:55;93467.31;;;0.45;73.81
21742;BME280;11033;47.490;11.116;2023-04-04T08:14:21;93460.75;;;0.30;72.47
21742;BME280;11033;47.490;11.116;2023-04-04T08:16:47;93463.56;;;0.38;72.83
21742;BME280;11033;47.490;11.116;2023-04-04T08:19:12;93463.91;;;0.45;71.88
21742;BME280;11033;47.490;11.116;2023-04-04T08:21:37;93459.03;;;0.51;71.59
21742;BME280;11033;47.490;11.116;2023-04-04T08:24:03;93457.13;;;0.64;72.45
21742;BME280;11033;47.490;11.116;2023-04-04T08:26:28;93457.16;;;0.53;68.88
21742;BME280;11033;47.490;11.116;2023-04-04T08:28:54;93459.03;;;0.51;68.30
21742;BME280;11033;47.490;11.116;2023-04-04T08:31:20;93457.50;;;0.60;68.70
21742;BME280;11033;47.490;11.116;2023-04-04T08:33:45;93456.19;;;0.66;68.75
21742;BME280;11033;47.490;11.116;2023-04-04T08:36:10;93456.91;;;0.56;68.70
21742;BME280;11033;47.490;11.116;2023-04-04T08:38:36;93453.31;;;0.80;70.20
21742;BME280;11033;47.490;11.116;2023-04-04T08:41:01;93445.28;;;0.83;70.12
21742;BME280;11033;47.490;11.116;2023-04-04T08:43:26;93446.00;;;0.85;69.69
21742;BME280;11033;47.490;11.116;2023-04-04T08:45:52;93443.34;;;0.96;69.62
21742;BME280;11033;47.490;11.116;2023-04-04T08:48:18;93455.94;;;1.01;70.04
21742;BME280;11033;47.490;11.116;2023-04-04T08:50:45;93448.16;;;1.01;68.78
21742;BME280;11033;47.490;11.116;2023-04-04T08:53:11;93457.56;;;1.02;68.27
21742;BME280;11033;47.490;11.116;2023-04-04T08:55:38;93445.94;;;0.96;67.77
21742;BME280;11033;47.490;11.116;2023-04-04T08:58:04;93454.16;;;1.01;66.67
21742;BME280;11033;47.490;11.116;2023-04-04T09:00:29;93449.41;;;1.06;67.80
21742;BME280;11033;47.490;11.116;2023-04-04T09:03:09;93452.72;;;1.08;67.64
21742;BME280;11033;47.490;11.116;2023-04-04T09:05:38;93452.97;;;1.05;67.72
21742;BME280;11033;47.490;11.116;2023-04-04T09:08:04;93453.03;;;0.94;66.43
21742;BME280;11033;47.490;11.116;2023-04-04T09:10:31;93450.69;;;0.91;65.35
21742;BME280;11033;47.490;11.116;2023-04-04T09:12:57;93452.25;;;1.03;66.48
21742;BME280;11033;47.490;11.116;2023-04-04T09:15:23;93452.97;;;1.05;64.93
21742;BME280;11033;47.490;11.116;2023-04-04T09:17:49;93451.06;;;1.07;67.03
21742;BME280;11033;47.490;11.116;2023-04-04T09:20:33;93464.09;;;1.17;68.51
21742;BME280;11033;47.490;11.116;2023-04-04T09:22:59;93461.69;;;1.25;67.62
21742;BME280;11033;47.490;11.116;2023-04-04T09:25:25;93452.84;;;1.27;68.06
21742;BME280;11033;47.490;11.116;2023-04-04T09:27:51;93455.13;;;1.42;68.29
21742;BME280;11033;47.490;11.116;2023-04-04T09:30:17;93457.28;;;1.37;65.86
21742;BME280;11033;47.490;11.116;2023-04-04T09:32:43;93455.91;;;1.33;66.04
21742;BME280;11033;47.490;11.116;2023-04-04T09:35:08;93452.63;;;1.31;65.72
21742;BME280;11033;47.490;11.116;2023-04-04T09:37:34;93455.06;;;1.53;67.15
21742;BME280;11033;47.490;11.116;2023-04-04T09:40:00;93459.91;;;1.67;67.34
21742;BME280;11033;47.490;11.116;2023-04-04T09:42:28;93450.38;;;1.77;67.62
21742;BME280;11033;47.490;11.116;2023-04-04T09:44:53;93453.94;;;1.76;66.07
21742;BME280;11033;47.490;11.116;2023-04-04T09:47:26;93448.88;;;1.75;64.15
21742;BME280;11033;47.490;11.116;2023-04-04T09:49:52;93450.22;;;2.00;64.76
21742;BME280;11033;47.490;11.116;2023-04-04T09:52:21;93449.59;;;2.17;65.56
21742;BME280;11033;47.490;11.116;2023-04-04T09:54:59;93450.59;;;2.26;62.72
21742;BME280;11033;47.490;11.116;2023-04-04T09:57:29;93449.41;;;2.59;65.04
21742;BME280;11033;47.490;11.116;2023-04-04T09:59:59;93438.66;;;2.82;63.78
21742;BME280;11033;47.490;11.116;2023-04-04T10:02:31;93440.97;;;3.14;66.04
21742;BME280;11033;47.490;11.116;2023-04-04T10:04:56;93446.56;;;3.19;64.48
21742;BME280;11033;47.490;11.116;2023-04-04T10:07:28;93441.25;;;3.31;62.14
21742;BME280;11033;47.490;11.116;2023-04-04T10:09:54;93439.44;;;3.41;61.50
21742;BME280;11033;47.490;11.116;2023-04-04T10:12:23;93435.72;;;3.53;61.88
21742;BME280;11033;47.490;11.116;2023-04-04T10:14:57;93440.94;;;4.00;63.06
21742;BME280;11033;47.490;11.116;2023-04-04T10:17:24;93434.56;;;4.12;62.97
21742;BME280;11033;47.490;11.116;2023-04-04T10:19:53;93432.50;;;4.43;62.30
21742;BME280;11033;47.490;11.116;2023-04-04T10:22:19;93436.56;;;4.55;61.70
21742;BME280;11033;47.490;11.116;2023-04-04T10:24:45;93426.81;;;4.75;60.49
21742;BME280;11033;47.490;11.116;2023-04-04T10:27:11;93427.13;;;5.07;61.32
21742;BME280;11033;47.490;11.116;2023-04-04T10:29:36;93424.88;;;5.13;60.00
21742;BME280;11033;47.490;11.116;2023-04-04T10:32:04;93429.22;;;5.22;57.80
21742;BME280;11033;47.490;11.116;2023-04-04T10:34:37;93424.53;;;5.51;59.67
21742;BME280;11033;47.490;11.116;2023-04-04T10:37:07;93424.66;;;5.67;59.62
21742;BME280;11033;47.490;11.116;2023-04-04T10:39:39;93425.06;;;5.55;56.62
21742;BME280;11033;47.490;11.116;2023-04-04T10:42:09;93413.06;;;5.44;57.88
21742;BME280;11033;47.490;11.116;2023-04-04T10:44:37;93413.22;;;5.68;59.16
21742;BME280;11033;47.490;11.116;2023-04-04T10:47:22;93412.25;;;5.69;58.34
21742;BME280;11033;47.490;11.116;2023-04-04T10:49:49;93413.44;;;5.49;57.35
21742;BME280;11033;47.490;11.116;2023-04-04T10:52:17;93418.41;;;4.99;55.23
21742;BME280;11033;47.490;11.116;2023-04-04T10:54:43;93417.34;;;5.09;56.23
21742;BME280;11033;47.490;11.116;2023-04-04T10:57:10;93415.47;;;5.20;54.56
21742;BME280;11033;47.490;11.116;2023-04-04T11:00:05;93409.59;;;5.61;55.95
21742;BME280;11033;47.490;11.116;2023-04-04T11:02:45;93411.13;;;5.46;55.32
21742;BME280;11033;47.490;11.116;2023-04-04T11:07:57;93406.84;;;5.01;54.00
21742;BME280;11033;47.490;11.116;2023-04-04T11:10:28;93408.84;;;5.25;56.61
21742;BME280;11033;47.490;11.116;2023-04-04T11:12:54;93399.59;;;5.83;55.06
21742;BME280;11033;47.490;11.116;2023-04-04T11:15:21;93398.44;;;6.03;54.11
21742;BME280;11033;47.490;11.116;2023-04-04T11:20:17;93397.34;;;5.62;51.79
21742;BME280;11033;47.490;11.116;2023-04-04T11:22:43;93402.50;;;5.80;53.16
21742;BME280;11033;47.490;11.116;2023-04-04T11:25:29;93395.25;;;5.39;50.88
21742;BME280;11033;47.490;11.116;2023-04-04T11:27:56;93397.56;;;5.68;51.62
21742;BME280;11033;47.490;11.116;2023-04-04T11:30:22;93385.09;;;6.14;56.06
21742;BME280;11033;47.490;11.116;2023-04-04T11:32:49;93401.66;;;5.45;51.54
21742;BME280;11033;47.490;11.116;2023-04-04T11:35:15;93385.22;;;6.04;51.97
21742;BME280;11033;47.490;11.116;2023-04-04T11:40:15;93379.16;;;6.46;50.56
21742;BME280;11033;47.490;11.116;2023-04-04T11:42:40;93380.34;;;6.60;49.81
21742;BME280;11033;47.490;11.116;2023-04-04T11:45:06;93382.03;;;7.10;51.39
21742;BME280;11033;47.490;11.116;2023-04-04T11:47:33;93380.72;;;6.81;50.85
21742;BME280;11033;47.490;11.116;2023-04-04T11:50:00;93381.22;;;7.09;48.55
21742;BME280;11033;47.490;11.116;2023-04-04T11:52:32;93382.69;;;7.69;49.21
21742;BME280;11033;47.490;11.116;2023-04-04T11:54:59;93379.22;;;8.32;49.60
21742;BME280;11033;47.490;11.116;2023-04-04T11:57:24;93371.81;;;8.82;48.11
21742;BME280;11033;47.490;11.116;2023-04-04T11:59:50;93374.59;;;8.81;48.53
21742;BME280;11033;47.490;11.116;2023-04-04T12:02:22;93369.84;;;9.30;47.47
21742;BME280;11033;47.490;11.116;2023-04-04T12:04:50;93361.91;;;9.76;47.71
21742;BME280;11033;47.490;11.116;2023-04-04T12:07:15;93365.16;;;9.78;45.85
21742;BME280;11033;47.490;11.116;2023-04-04T12:09:41;93356.56;;;10.13;42.86
21742;BME280;11033;47.490;11.116;2023-04-04T12:12:07;93355.81;;;11.00;43.92
21742;BME280;11033;47.490;11.116;2023-04-04T12:14:36;93357.09;;;11.25;43.66
21742;BME280;11033;47.490;11.116;2023-04-04T12:17:04;93349.06;;;11.33;40.19
21742;BME280;11033;47.490;11.116;2023-04-04T12:19:29;93361.34;;;10.69;41.52
21742;BME280;11033;47.490;11.116;2023-04-04T12:21:56;93353.75;;;11.81;40.11
21742;BME280;11033;47.490;11.116;2023-04-04T12:24:22;93345.28;;;12.20;41.56
21742;BME280;11033;47.490;11.116;2023-04-04T12:26:49;93354.34;;;11.33;38.62
21742;BME280;11033;47.490;11.116;2023-04-04T12:29:16;93353.38;;;12.18;40.69
21742;BME280;11033;47.490;11.116;2023-04-04T12:31:44;93360.22;;;10.42;37.61
21742;BME280;11033;47.490;11.116;2023-04-04T12:34:40;93358.44;;;11.00;40.91
21742;BME280;11033;47.490;11.116;2023-04-04T12:37:08;93345.88;;;11.87;40.81
21742;BME280;11033;47.490;11.116;2023-04-04T12:39:34;93338.34;;;11.63;39.91
21742;BME280;11033;47.490;11.116;2023-04-04T12:42:04;93339.38;;;10.98;38.53
21742;BME280;11033;47.490;11.116;2023-04-04T12:44:32;93336.00;;;11.25;40.16
21742;BME280;11033;47.490;11.116;2023-04-04T12:47:03;93337.03;;;12.01;41.30
21742;BME280;11033;47.490;11.116;2023-04-04T12:49:48;93338.19;;;12.61;39.23
21742;BME280;11033;47.490;11.116;2023-04-04T12:52:25;93338.41;;;13.27;38.38
21742;BME280;11033;47.490;11.116;2023-04-04T12:54:51;93336.44;;;13.69;39.91
21742;BME280;11033;47.490;11.116;2023-04-04T12:57:21;93326.00;;;13.35;38.24
21742;BME280;11033;47.490;11.116;2023-04-04T12:59:48;93327.66;;;13.75;36.48
21742;BME280;11033;47.490;11.116;2023-04-04T13:02:16;93335.34;;;12.69;37.93